createdAt,value
2019-02-28T00:01:43.284Z,99701.84
2019-02-28T00:04:13.621Z,99702.86
2019-02-28T00:06:44.263Z,99692.89
2019-02-28T00:09:15.403Z,99697.23
2019-02-28T00:11:45.411Z,99687.69
2019-02-28T00:14:15.477Z,99684.06
2019-02-28T00:16:45.590Z,99683.11
2019-02-28T00:19:15.741Z,99674.00
2019-02-28T00:21:46.940Z,99665.38
2019-02-28T00:24:17.151Z,99659.83
2019-02-28T00:26:47.960Z,99653.88
2019-02-28T00:29:18.311Z,99652.66
2019-02-28T00:31:49.913Z,99644.16
2019-02-28T00:34:20.321Z,99643.37
2019-02-28T00:36:53.450Z,99641.28
2019-02-28T00:39:22.473Z,99632.73
2019-02-28T00:41:52.720Z,99639.63
2019-02-28T00:44:22.961Z,99630.61
2019-02-28T00:46:53.220Z,99622.89
2019-02-28T00:49:24.466Z,99620.84
2019-02-28T00:51:55.350Z,99618.72
2019-02-28T00:54:25.473Z,99610.92
2019-02-28T00:56:55.652Z,99604.94
2019-02-28T00:59:25.741Z,99596.44
2019-02-28T01:01:55.871Z,99595.02
2019-02-28T01:04:26.010Z,99587.69
2019-02-28T01:06:56.191Z,99585.99
2019-02-28T01:09:27.088Z,99583.31
2019-02-28T01:11:58.201Z,99580.28
2019-02-28T01:14:28.341Z,99570.75
2019-02-28T01:16:58.550Z,99566.37
2019-02-28T01:19:28.703Z,99564.29
2019-02-28T01:21:58.901Z,99553.07
2019-02-28T01:24:29.031Z,99553.63
2019-02-28T01:26:59.241Z,99551.07
2019-02-28T01:29:29.331Z,99537.24
2019-02-28T01:31:59.440Z,99539.58
2019-02-28T01:34:32.205Z,99533.56
2019-02-28T01:37:01.591Z,99520.22
2019-02-28T01:39:31.703Z,99518.52
2019-02-28T01:42:01.873Z,99511.12
2019-02-28T01:44:35.615Z,99507.69
2019-02-28T01:47:03.660Z,99498.13
2019-02-28T01:49:33.780Z,99499.84
2019-02-28T01:52:04.000Z,99496.43
2019-02-28T01:54:34.157Z,99490.09
2019-02-28T01:57:04.323Z,99488.92
2019-02-28T01:59:34.420Z,99486.92
2019-02-28T02:02:06.703Z,99476.27
2019-02-28T02:04:36.292Z,99469.42
2019-02-28T02:07:06.461Z,99461.23
2019-02-28T02:09:36.711Z,99463.88
2019-02-28T02:12:06.961Z,99445.73
2019-02-28T02:14:37.162Z,99446.59
2019-02-28T02:17:07.451Z,99443.14
2019-02-28T02:19:37.572Z,99440.66
2019-02-28T02:22:09.407Z,99430.27
2019-02-28T02:24:39.634Z,99429.36
2019-02-28T02:27:09.821Z,99427.20
2019-02-28T02:29:40.141Z,99423.30
2019-02-28T02:32:10.272Z,99424.25
2019-02-28T02:34:40.469Z,99418.66
2019-02-28T02:37:10.621Z,99405.33
2019-02-28T02:39:40.780Z,99404.08
2019-02-28T02:42:11.704Z,99399.34
2019-02-28T02:44:41.881Z,99399.83
2019-02-28T02:47:11.976Z,99400.18
2019-02-28T02:49:42.150Z,99385.02
2019-02-28T02:52:12.262Z,99375.42
2019-02-28T02:54:42.591Z,99371.91
2019-02-28T02:57:13.890Z,99366.98
2019-02-28T02:59:45.550Z,99364.30
2019-02-28T03:02:15.701Z,99354.59
2019-02-28T03:04:45.871Z,99348.02
2019-02-28T03:07:23.051Z,99339.35
2019-02-28T03:09:47.851Z,99333.59
2019-02-28T03:12:18.311Z,99330.43
2019-02-28T03:14:48.990Z,99325.70
2019-02-28T03:17:19.960Z,99317.09
2019-02-28T03:19:50.010Z,99311.61
2019-02-28T03:22:20.099Z,99312.55
2019-02-28T03:24:51.102Z,99305.77
2019-02-28T03:27:21.742Z,99305.77
2019-02-28T03:29:51.850Z,99295.94
2019-02-28T03:32:21.919Z,99296.89
2019-02-28T03:34:58.350Z,99297.50
2019-02-28T03:37:23.620Z,99290.41
2019-02-28T03:40:02.371Z,99285.88
2019-02-28T03:42:28.524Z,99274.96
2019-02-28T03:44:58.220Z,99274.05
2019-02-28T03:47:28.501Z,99258.18
2019-02-28T03:49:58.538Z,99259.48
2019-02-28T03:52:28.609Z,99253.50
2019-02-28T03:55:03.379Z,99238.31
2019-02-28T03:57:30.289Z,99243.51
2019-02-28T04:00:00.472Z,99238.70
2019-02-28T04:02:31.568Z,99229.11
2019-02-28T04:05:01.630Z,99227.33
2019-02-28T04:07:34.494Z,99213.48
2019-02-28T04:10:03.359Z,99210.02
2019-02-28T04:12:33.458Z,99210.55
2019-02-28T04:15:05.881Z,99202.32
2019-02-28T04:17:35.340Z,99210.94
2019-02-28T04:20:05.647Z,99200.20
2019-02-28T04:22:35.899Z,99194.67
2019-02-28T04:25:05.919Z,99190.25
2019-02-28T04:27:40.211Z,99185.05
2019-02-28T04:30:08.433Z,99175.89
2019-02-28T04:32:38.749Z,99173.38
2019-02-28T04:35:08.910Z,99165.24
2019-02-28T04:37:44.868Z,99157.38
2019-02-28T04:40:10.649Z,99154.63
2019-02-28T04:42:43.989Z,99144.69
2019-02-28T04:45:13.988Z,99131.36
2019-02-28T04:47:44.121Z,99132.28
2019-02-28T04:50:14.278Z,99128.28
2019-02-28T04:52:48.058Z,99130.70
2019-02-28T04:55:15.899Z,99130.98
2019-02-28T04:57:45.998Z,99124.84
2019-02-28T05:00:16.089Z,99125.70
2019-02-28T05:02:46.088Z,99115.36
2019-02-28T05:05:16.058Z,99107.63
2019-02-28T05:07:46.048Z,99102.88
2019-02-28T05:10:16.048Z,99097.34
2019-02-28T05:12:46.191Z,99086.13
2019-02-28T05:15:16.190Z,99079.11
2019-02-28T05:17:46.309Z,99084.93
2019-02-28T05:20:16.315Z,99083.06
2019-02-28T05:22:46.300Z,99079.88
2019-02-28T05:25:18.711Z,99075.89
2019-02-28T05:27:48.078Z,99075.02
2019-02-28T05:30:19.617Z,99075.06
2019-02-28T05:32:50.008Z,99069.73
2019-02-28T05:35:25.499Z,99062.41
2019-02-28T05:37:51.770Z,99062.75
2019-02-28T05:40:21.848Z,99060.10
2019-02-28T05:42:54.699Z,99057.31
2019-02-28T05:45:23.728Z,99055.38
2019-02-28T05:47:53.750Z,99056.05
2019-02-28T05:50:23.768Z,99053.34
2019-02-28T05:52:53.808Z,99048.16
2019-02-28T05:55:25.450Z,99049.84
2019-02-28T05:57:55.670Z,99040.63
2019-02-28T06:00:26.855Z,99046.22
2019-02-28T06:02:58.044Z,99041.25
2019-02-28T06:05:28.689Z,99042.04
2019-02-28T06:08:00.561Z,99034.98
2019-02-28T06:10:30.731Z,99017.48
2019-02-28T06:13:01.749Z,99012.75
2019-02-28T06:15:34.244Z,99016.92
2019-02-28T06:18:03.469Z,99017.91
2019-02-28T06:20:33.559Z,99006.64
2019-02-28T06:23:06.303Z,99004.50
2019-02-28T06:25:35.369Z,98998.45
2019-02-28T06:28:05.486Z,98999.38
2019-02-28T06:30:35.552Z,98996.38
2019-02-28T06:33:05.622Z,98982.02
2019-02-28T06:35:35.729Z,98990.84
2019-02-28T06:38:06.754Z,98987.08
2019-02-28T06:40:37.046Z,98979.11
2019-02-28T06:43:07.189Z,98965.84
2019-02-28T06:45:37.825Z,98957.63
2019-02-28T06:48:07.919Z,98955.48
2019-02-28T06:50:38.036Z,98941.47
2019-02-28T06:53:08.270Z,98926.17
2019-02-28T06:55:48.149Z,98922.00
2019-02-28T06:58:19.698Z,98903.95
2019-02-28T07:00:50.539Z,98912.78
2019-02-28T07:03:22.269Z,98906.36
2019-02-28T07:05:52.469Z,98897.67
2019-02-28T07:08:24.811Z,98882.20
2019-02-28T07:10:54.319Z,98868.48
2019-02-28T07:13:24.439Z,98863.47
2019-02-28T07:15:55.609Z,98857.27
2019-02-28T07:18:26.838Z,98850.14
2019-02-28T07:20:56.950Z,98845.21
2019-02-28T07:23:30.019Z,98828.59
2019-02-28T07:25:58.899Z,98845.21
2019-02-28T07:28:29.363Z,98849.37
2019-02-28T07:30:59.701Z,98836.95
2019-02-28T07:33:29.942Z,98819.59
2019-02-28T07:36:00.236Z,98827.36
2019-02-28T07:38:30.509Z,98848.14
2019-02-28T07:41:00.510Z,98858.44
2019-02-28T07:43:30.478Z,98855.09
2019-02-28T07:46:00.610Z,98853.42
2019-02-28T07:48:30.868Z,98855.08
2019-02-28T07:51:00.900Z,98851.77
2019-02-28T07:53:35.969Z,98843.32
2019-02-28T07:56:07.779Z,98838.47
2019-02-28T07:58:38.063Z,98836.13
2019-02-28T08:01:08.109Z,98813.92
2019-02-28T08:03:38.078Z,98817.78
2019-02-28T08:06:08.631Z,98812.23
2019-02-28T08:08:38.773Z,98800.22
2019-02-28T08:11:09.098Z,98796.10
2019-02-28T08:13:39.219Z,98789.59
2019-02-28T08:16:09.263Z,98779.88
2019-02-28T08:18:39.338Z,98787.17
2019-02-28T08:21:09.536Z,98798.55
2019-02-28T08:23:39.578Z,98799.59
2019-02-28T08:26:09.918Z,98790.89
2019-02-28T08:28:40.338Z,98792.00
2019-02-28T08:31:10.377Z,98775.02
2019-02-28T08:33:40.341Z,98762.00
2019-02-28T08:36:38.200Z,98741.38
2019-02-28T08:39:16.424Z,98749.39
2019-02-28T08:41:49.579Z,98755.04
2019-02-28T08:44:23.769Z,98743.72
2019-02-28T08:46:54.054Z,98728.89
2019-02-28T08:49:25.211Z,98727.13
2019-02-28T08:51:56.609Z,98722.80
2019-02-28T08:54:27.821Z,98715.44
2019-02-28T08:56:59.168Z,98709.22
2019-02-28T08:59:30.501Z,98707.78
2019-02-28T09:02:01.761Z,98696.73
2019-02-28T09:04:41.016Z,98687.11
2019-02-28T09:07:06.238Z,98675.27
2019-02-28T09:09:38.419Z,98685.66
2019-02-28T09:12:09.508Z,98679.70
2019-02-28T09:14:40.680Z,98685.50
2019-02-28T09:17:11.944Z,98693.52
2019-02-28T09:19:43.138Z,98697.58
2019-02-28T09:22:14.378Z,98699.03
2019-02-28T09:24:46.822Z,98699.51
2019-02-28T09:27:19.341Z,98704.52
2019-02-28T09:29:54.478Z,98706.11
2019-02-28T09:32:23.559Z,98702.75
2019-02-28T09:34:54.773Z,98682.14
2019-02-28T09:37:29.663Z,98689.41
2019-02-28T09:39:59.691Z,98706.94
2019-02-28T09:42:30.950Z,98699.89
2019-02-28T09:45:06.713Z,98713.05
2019-02-28T09:47:35.285Z,98712.77
2019-02-28T09:50:07.343Z,98694.67
2019-02-28T09:52:41.667Z,98702.58
2019-02-28T09:55:12.242Z,98689.64
2019-02-28T09:57:43.649Z,98694.23
2019-02-28T10:00:17.258Z,98687.20
2019-02-28T10:02:48.751Z,98707.50
2019-02-28T10:05:20.038Z,98705.31
2019-02-28T10:07:51.399Z,98696.07
2019-02-28T10:10:22.941Z,98683.57
2019-02-28T10:12:54.502Z,98688.67
2019-02-28T10:15:26.378Z,98693.70
2019-02-28T10:18:00.604Z,98669.39
2019-02-28T10:20:30.620Z,98683.13
2019-02-28T10:23:01.894Z,98676.31
2019-02-28T10:25:33.170Z,98692.53
2019-02-28T10:28:04.501Z,98693.89
2019-02-28T10:30:36.070Z,98689.05
2019-02-28T10:33:07.310Z,98680.91
2019-02-28T10:35:38.828Z,98681.03
2019-02-28T10:38:10.198Z,98678.02
2019-02-28T10:40:41.610Z,98668.73
2019-02-28T10:43:15.507Z,98640.80
2019-02-28T10:45:46.160Z,98643.56
2019-02-28T10:48:17.658Z,98643.23
2019-02-28T10:50:49.050Z,98660.31
2019-02-28T10:53:21.571Z,98647.64
2019-02-28T10:55:54.361Z,98654.16
2019-02-28T10:58:25.861Z,98672.87
2019-02-28T11:00:57.190Z,98676.80
2019-02-28T11:03:32.187Z,98673.04
2019-02-28T11:06:02.260Z,98659.78
2019-02-28T11:08:33.620Z,98659.28
2019-02-28T11:11:07.376Z,98664.81
2019-02-28T11:13:38.130Z,98661.68
2019-02-28T11:16:10.171Z,98656.05
2019-02-28T11:18:42.730Z,98652.34
2019-02-28T11:21:14.980Z,98650.61
2019-02-28T11:23:49.071Z,98655.98
2019-02-28T11:26:18.498Z,98645.27
2019-02-28T11:28:49.828Z,98651.98
2019-02-28T11:31:21.285Z,98657.08
2019-02-28T11:33:52.658Z,98666.34
2019-02-28T11:36:23.963Z,98671.30
2019-02-28T11:38:56.053Z,98661.06
2019-02-28T11:41:27.618Z,98662.78
2019-02-28T11:43:58.618Z,98659.85
2019-02-28T11:46:35.755Z,98652.55
2019-02-28T11:49:03.720Z,98644.35
2019-02-28T11:51:35.069Z,98649.22
2019-02-28T11:54:06.393Z,98645.80
2019-02-28T11:56:37.710Z,98642.84
2019-02-28T11:59:09.639Z,98645.11
2019-02-28T12:01:42.485Z,98653.13
2019-02-28T12:04:13.936Z,98654.38
2019-02-28T12:07:52.040Z,98656.23
2019-02-28T12:10:23.378Z,98663.63
2019-02-28T12:12:56.418Z,98663.92
2019-02-28T12:15:28.760Z,98663.59
2019-02-28T12:18:03.515Z,98663.93
2019-02-28T12:20:33.439Z,98662.81
2019-02-28T12:23:05.007Z,98674.20
2019-02-28T12:25:36.290Z,98668.19
2019-02-28T12:28:07.580Z,98669.47
2019-02-28T12:30:40.306Z,98675.86
2019-02-28T12:33:11.758Z,98660.58
2019-02-28T12:35:43.012Z,98668.20
2019-02-28T12:38:14.508Z,98675.91
2019-02-28T12:40:48.519Z,98667.73
2019-02-28T12:43:18.928Z,98669.66
2019-02-28T12:45:50.460Z,98680.18
2019-02-28T12:48:21.771Z,98676.42
2019-02-28T12:50:53.278Z,98679.72
2019-02-28T12:53:25.430Z,98678.32
2019-02-28T12:55:58.108Z,98697.02
2019-02-28T12:58:37.228Z,98690.84
2019-02-28T13:01:02.431Z,98696.33
2019-02-28T13:03:34.303Z,98705.26
2019-02-28T13:06:05.741Z,98702.69
2019-02-28T13:08:38.735Z,98695.53
2019-02-28T13:11:10.373Z,98706.19
2019-02-28T13:13:41.777Z,98699.14
2019-02-28T13:16:20.611Z,98707.98
2019-02-28T13:18:51.199Z,98710.63
2019-02-28T13:21:22.653Z,98702.34
2019-02-28T13:23:54.028Z,98707.50
2019-02-28T13:26:25.490Z,98705.00
2019-02-28T13:28:59.131Z,98705.81
2019-02-28T13:31:30.459Z,98703.17
2019-02-28T13:34:01.733Z,98707.80
2019-02-28T13:39:13.424Z,98695.75
2019-02-28T13:41:44.912Z,98693.60
2019-02-28T13:44:16.290Z,98694.83
2019-02-28T13:46:48.695Z,98709.23
2019-02-28T13:49:20.069Z,98713.91
2019-02-28T13:51:51.322Z,98712.50
2019-02-28T13:54:22.469Z,98722.09
2019-02-28T13:56:53.780Z,98723.94
2019-02-28T13:59:25.198Z,98733.77
2019-02-28T14:01:56.518Z,98731.77
2019-02-28T14:04:28.088Z,98728.47
2019-02-28T14:06:59.409Z,98733.25
2019-02-28T14:09:30.860Z,98728.50
2019-02-28T14:12:02.166Z,98734.77
2019-02-28T14:14:33.608Z,98732.55
2019-02-28T14:17:04.930Z,98728.17
2019-02-28T14:19:36.390Z,98737.64
2019-02-28T14:22:08.623Z,98728.70
2019-02-28T14:24:41.259Z,98736.97
2019-02-28T14:27:12.480Z,98744.52
2019-02-28T14:29:48.421Z,98739.88
2019-02-28T14:32:18.152Z,98740.77
2019-02-28T14:34:49.420Z,98749.77
2019-02-28T14:37:20.880Z,98749.05
2019-02-28T14:39:52.864Z,98752.41
2019-02-28T14:42:24.300Z,98758.27
2019-02-28T14:44:55.638Z,98748.09
2019-02-28T14:47:28.438Z,98747.60
2019-02-28T14:50:00.653Z,98747.14
2019-02-28T14:52:32.083Z,98764.58
2019-02-28T14:55:03.478Z,98773.36
2019-02-28T14:57:34.828Z,98783.19
2019-02-28T15:00:07.335Z,98772.80
2019-02-28T15:02:39.660Z,98778.75
2019-02-28T15:05:12.038Z,98776.88
2019-02-28T15:07:44.300Z,98778.48
2019-02-28T15:10:17.229Z,98791.15
2019-02-28T15:12:49.100Z,98787.52
2019-02-28T15:15:20.960Z,98795.39
2019-02-28T15:17:52.410Z,98790.80
2019-02-28T15:20:23.670Z,98793.98
2019-02-28T15:22:56.181Z,98796.34
2019-02-28T15:25:27.909Z,98801.88
2019-02-28T15:27:59.657Z,98807.47
2019-02-28T15:30:33.979Z,98815.21
2019-02-28T15:33:05.790Z,98815.21
2019-02-28T15:35:37.048Z,98820.33
2019-02-28T15:38:09.111Z,98821.73
2019-02-28T15:40:41.488Z,98818.58
2019-02-28T15:43:16.961Z,98826.75
2019-02-28T15:45:45.831Z,98819.25
2019-02-28T15:48:17.169Z,98826.11
2019-02-28T15:50:51.925Z,98824.16
2019-02-28T15:53:24.254Z,98834.64
2019-02-28T15:55:55.581Z,98832.78
2019-02-28T15:58:26.949Z,98833.90
2019-02-28T16:00:58.285Z,98836.14
2019-02-28T16:03:29.903Z,98834.67
2019-02-28T16:06:01.362Z,98843.83
2019-02-28T16:08:32.860Z,98844.66
2019-02-28T16:11:06.257Z,98852.98
2019-02-28T16:13:37.759Z,98853.65
2019-02-28T16:16:09.229Z,98856.16
2019-02-28T16:18:44.077Z,98857.92
2019-02-28T16:21:15.230Z,98858.19
2019-02-28T16:23:46.562Z,98854.92
2019-02-28T16:26:21.489Z,98872.37
2019-02-28T16:28:51.051Z,98878.89
2019-02-28T16:31:22.409Z,98884.41
2019-02-28T16:33:57.755Z,98883.95
2019-02-28T16:36:26.585Z,98881.50
2019-02-28T16:38:57.969Z,98888.58
2019-02-28T16:41:29.221Z,98890.38
2019-02-28T16:44:00.431Z,98893.15
2019-02-28T16:46:31.879Z,98900.34
2019-02-28T16:49:03.042Z,98893.59
2019-02-28T16:51:34.411Z,98901.60
2019-02-28T16:54:07.821Z,98908.63
2019-02-28T16:56:39.134Z,98905.16
2019-02-28T16:59:10.331Z,98911.48
2019-02-28T17:01:41.891Z,98921.56
2019-02-28T17:04:13.581Z,98923.41
2019-02-28T17:06:46.180Z,98921.14
2019-02-28T17:09:21.480Z,98929.41
2019-02-28T17:12:17.752Z,98924.13
2019-02-28T17:17:51.610Z,98924.34
2019-02-28T17:20:25.151Z,98929.91
2019-02-28T17:22:58.542Z,98930.62
2019-02-28T17:25:38.445Z,98934.97
2019-02-28T17:28:28.701Z,98934.23
2019-02-28T17:31:11.592Z,98937.41
2019-02-28T17:33:47.963Z,98942.07
2019-02-28T17:36:21.601Z,98942.64
2019-02-28T17:38:52.904Z,98956.11
2019-02-28T17:41:24.561Z,98965.20
2019-02-28T17:44:24.191Z,98967.36
2019-02-28T17:46:56.961Z,98967.53
2019-02-28T17:50:05.689Z,98973.91
2019-02-28T17:52:48.100Z,98978.52
2019-02-28T17:56:06.321Z,98984.20
2019-02-28T17:59:12.161Z,98980.98
2019-02-28T18:02:13.420Z,98984.05
2019-02-28T18:05:10.632Z,98979.91
2019-02-28T18:08:06.522Z,98977.91
2019-02-28T18:11:44.963Z,98981.90
2019-02-28T18:14:54.411Z,98983.06
2019-02-28T18:18:05.349Z,98983.59
2019-02-28T18:21:46.009Z,98980.67
2019-02-28T18:25:04.054Z,98988.70
2019-02-28T18:28:14.511Z,98987.70
2019-02-28T18:31:15.546Z,98984.48
2019-02-28T18:34:20.619Z,98990.07
2019-02-28T18:36:50.668Z,98991.98
2019-02-28T18:42:26.894Z,98993.36
2019-02-28T18:44:59.901Z,98981.77
2019-02-28T18:47:31.219Z,98985.44
2019-02-28T18:50:02.421Z,98983.06
2019-02-28T18:52:36.959Z,98996.95
2019-02-28T18:55:53.221Z,98993.11
2019-02-28T18:58:58.992Z,98993.69
2019-02-28T19:01:28.099Z,98999.74
2019-02-28T19:04:25.881Z,99009.75
2019-02-28T19:06:55.288Z,99001.17
2019-02-28T19:09:46.690Z,99005.38
2019-02-28T19:12:59.058Z,99006.62
2019-02-28T19:15:45.198Z,99014.42
2019-02-28T19:18:40.419Z,99018.14
2019-02-28T19:21:18.512Z,99014.20
2019-02-28T19:23:46.999Z,99020.45
2019-02-28T19:26:18.810Z,99020.67
2019-02-28T19:28:50.349Z,99026.77
2019-02-28T19:31:21.749Z,99025.95
2019-02-28T19:33:54.321Z,99028.30
2019-02-28T19:36:25.660Z,99029.22
2019-02-28T19:38:56.948Z,99018.55
2019-02-28T19:41:28.270Z,99030.77
2019-02-28T19:43:59.701Z,99038.25
2019-02-28T19:46:31.118Z,99035.48
2019-02-28T19:49:02.539Z,99039.63
2019-02-28T19:51:34.751Z,99047.27
2019-02-28T19:54:05.029Z,99050.49
2019-02-28T19:56:39.506Z,99049.91
2019-02-28T19:59:14.270Z,99056.91
2019-02-28T20:01:48.291Z,99056.64
2019-02-28T20:04:19.770Z,99067.91
2019-02-28T20:06:51.088Z,99066.67
2019-02-28T20:09:22.450Z,99066.79
2019-02-28T20:11:53.761Z,99074.27
2019-02-28T20:14:24.931Z,99072.91
2019-02-28T20:16:57.400Z,99080.83
2019-02-28T20:19:30.054Z,99089.28
2019-02-28T20:24:56.690Z,99089.98
2019-02-28T20:27:30.241Z,99088.11
2019-02-28T20:30:02.020Z,99091.48
2019-02-28T20:32:34.990Z,99092.08
2019-02-28T20:35:07.651Z,99097.94
2019-02-28T20:37:39.978Z,99112.05
2019-02-28T20:40:17.172Z,99115.57
2019-02-28T20:42:53.103Z,99120.66
2019-02-28T20:45:25.768Z,99123.14
2019-02-28T20:47:59.540Z,99126.94
2019-02-28T20:50:36.428Z,99126.05
2019-02-28T20:53:27.392Z,99135.98
2019-02-28T20:55:58.701Z,99139.50
2019-02-28T20:58:30.011Z,99145.56
2019-02-28T21:01:01.270Z,99151.09
2019-02-28T21:03:33.011Z,99151.55
2019-02-28T21:06:04.320Z,99151.55
2019-02-28T21:08:36.210Z,99156.30
2019-02-28T21:11:07.580Z,99155.45
2019-02-28T21:13:39.166Z,99160.20
2019-02-28T21:16:10.479Z,99161.56
2019-02-28T21:18:42.022Z,99167.54
2019-02-28T21:21:13.300Z,99156.80
2019-02-28T21:23:44.580Z,99168.98
2019-02-28T21:26:17.340Z,99162.98
2019-02-28T21:28:48.550Z,99162.59
2019-02-28T21:31:22.611Z,99168.19
2019-02-28T21:33:53.869Z,99173.89
2019-02-28T21:36:25.120Z,99163.09
2019-02-28T21:38:56.430Z,99172.70
2019-02-28T21:41:27.795Z,99164.89
2019-02-28T21:43:59.530Z,99171.88
2019-02-28T21:46:30.898Z,99182.34
2019-02-28T21:49:02.298Z,99181.42
2019-02-28T21:51:33.704Z,99184.13
2019-02-28T21:54:05.091Z,99185.05
2019-02-28T21:56:36.398Z,99185.16
2019-02-28T21:59:07.639Z,99189.59
2019-02-28T22:01:39.030Z,99193.98
2019-02-28T22:04:10.111Z,99186.97
2019-02-28T22:06:41.421Z,99192.74
2019-02-28T22:09:12.870Z,99186.10
2019-02-28T22:11:46.107Z,99191.27
2019-02-28T22:14:18.470Z,99189.92
2019-02-28T22:16:49.751Z,99194.27
2019-02-28T22:19:21.072Z,99195.23
2019-02-28T22:21:52.349Z,99196.95
2019-02-28T22:24:23.680Z,99199.34
2019-02-28T22:26:55.950Z,99196.45
2019-02-28T22:29:26.198Z,99197.52
2019-02-28T22:32:23.920Z,99200.25
2019-02-28T22:35:22.130Z,99194.03
2019-02-28T22:37:53.589Z,99208.20
2019-02-28T22:40:24.791Z,99212.62
2019-02-28T22:42:56.141Z,99214.31
2019-02-28T22:45:27.411Z,99212.42
2019-02-28T22:47:58.674Z,99219.67
2019-02-28T22:50:29.949Z,99219.41
2019-02-28T22:53:01.153Z,99223.98
2019-02-28T22:55:32.688Z,99222.16
2019-02-28T22:58:08.626Z,99227.86
2019-02-28T23:00:59.170Z,99231.40
2019-02-28T23:03:32.887Z,99229.27
2019-02-28T23:06:03.068Z,99225.82
2019-02-28T23:08:34.224Z,99225.94
2019-02-28T23:11:05.630Z,99224.73
2019-02-28T23:13:36.969Z,99223.52
2019-02-28T23:16:08.866Z,99223.98
2019-02-28T23:18:40.071Z,99225.71
2019-02-28T23:21:11.358Z,99227.09
2019-02-28T23:23:42.600Z,99225.40
2019-02-28T23:26:15.408Z,99226.89
2019-02-28T23:29:14.967Z,99234.80
2019-02-28T23:32:24.019Z,99238.33
2019-02-28T23:34:57.182Z,99243.74
2019-02-28T23:37:28.431Z,99242.17
2019-02-28T23:39:59.658Z,99237.53
2019-02-28T23:42:30.820Z,99243.26
2019-02-28T23:45:01.943Z,99244.67
2019-02-28T23:47:33.240Z,99246.91
2019-02-28T23:50:05.070Z,99247.41
2019-02-28T23:52:36.300Z,99251.38
2019-02-28T23:55:07.528Z,99256.16
2019-02-28T23:57:39.279Z,99254.07
